Nikep, Maryland
Current Conditions -  °F | °C
As of 1:16 PM on Sunday 25 Jan 2015 (Local Time) from KCBE Reporting Station
Overcast Overcast  
Wind Chill: 45°   Ceiling: 4800
Heat Index: 45°   Visibility: 10mi
Dew Point: 32°   Wind: 3mph
Humidity: 61%   Direction: 240°WSW
Pressure: 29.82"   Gusts: NA
Location:  39.5506°N, 78.9975°W
Report Text: KCBE 251816Z AUTO 24003KT 10SM SCT043 OVC048 07/00 A2982 RMK AO1
Loading
Personal Weather Stations






























Interactive Weather Map New forecast layout! Learn more

10-Day Weather Forecast

Advertisements
Track Severe Weather on mobile